createdAt,value
2022-10-22T00:02:21.892Z,9.70
2022-10-22T00:04:54.023Z,9.72
2022-10-22T00:07:25.747Z,9.73
2022-10-22T00:09:57.145Z,9.73
2022-10-22T00:12:34.235Z,9.71
2022-10-22T00:15:07.158Z,9.70
2022-10-22T00:17:39.540Z,9.67
2022-10-22T00:20:13.518Z,9.67
2022-10-22T00:22:45.061Z,9.65
2022-10-22T00:25:20.317Z,9.64
2022-10-22T00:27:51.789Z,9.64
2022-10-22T00:30:23.402Z,9.64
2022-10-22T00:32:54.860Z,9.63
2022-10-22T00:35:26.849Z,9.63
2022-10-22T00:37:58.296Z,9.65
2022-10-22T00:40:29.790Z,9.68
2022-10-22T00:43:01.265Z,9.73
2022-10-22T00:45:33.237Z,9.75
2022-10-22T00:48:10.395Z,9.77
2022-10-22T00:50:47.442Z,9.77
2022-10-22T00:53:21.382Z,9.73
2022-10-22T00:55:53.186Z,9.70
2022-10-22T00:58:28.667Z,9.66
2022-10-22T01:01:00.949Z,9.60
2022-10-22T01:03:34.157Z,9.59
2022-10-22T01:06:07.152Z,9.55
2022-10-22T01:08:52.011Z,9.52
2022-10-22T01:11:30.417Z,9.48
2022-10-22T01:14:14.414Z,9.44
2022-10-22T01:16:49.376Z,9.39
2022-10-22T01:19:44.362Z,9.35
2022-10-22T01:22:21.905Z,9.28
2022-10-22T01:25:06.472Z,9.24
2022-10-22T01:27:54.960Z,9.20
2022-10-22T01:30:27.958Z,9.19
2022-10-22T01:33:04.731Z,9.20
2022-10-22T01:35:42.964Z,9.23
2022-10-22T01:38:20.214Z,9.27
2022-10-22T01:40:54.627Z,9.32
2022-10-22T01:43:26.459Z,9.35
2022-10-22T01:46:03.217Z,9.37
2022-10-22T01:48:45.530Z,9.39
2022-10-22T01:51:39.958Z,9.39
2022-10-22T01:54:23.964Z,9.37
2022-10-22T01:56:59.468Z,9.35
2022-10-22T01:59:44.753Z,9.33
2022-10-22T02:02:30.738Z,9.27
2022-10-22T02:05:06.633Z,9.23
2022-10-22T02:07:43.847Z,9.17
2022-10-22T02:10:18.859Z,9.14
2022-10-22T02:12:54.823Z,9.10
2022-10-22T02:15:28.677Z,9.06
2022-10-22T02:18:01.441Z,9.02
2022-10-22T02:20:36.458Z,9.00
2022-10-22T02:23:09.954Z,9.00
2022-10-22T02:25:45.884Z,9.03
2022-10-22T02:28:25.771Z,9.07
2022-10-22T02:31:10.420Z,9.10
2022-10-22T02:33:46.804Z,9.13
2022-10-22T02:36:20.184Z,9.14
2022-10-22T02:38:53.683Z,9.12
2022-10-22T02:41:25.465Z,9.11
2022-10-22T02:43:58.107Z,9.10
2022-10-22T02:46:29.687Z,9.08
2022-10-22T02:49:01.185Z,9.02
2022-10-22T02:51:32.610Z,8.98
2022-10-22T02:54:04.240Z,8.91
2022-10-22T02:56:35.702Z,8.86
2022-10-22T02:59:07.251Z,8.81
2022-10-22T03:01:38.730Z,8.74
2022-10-22T03:04:10.317Z,8.67
2022-10-22T03:06:43.952Z,8.61
2022-10-22T03:09:18.153Z,8.57
2022-10-22T03:11:51.468Z,8.55
2022-10-22T03:14:23.111Z,8.53
2022-10-22T03:16:55.274Z,8.54
2022-10-22T03:19:28.863Z,8.60
2022-10-22T03:22:06.668Z,8.64
2022-10-22T03:24:42.236Z,8.67
2022-10-22T03:27:16.119Z,8.66
2022-10-22T03:29:47.981Z,8.66
2022-10-22T03:32:19.683Z,8.64
2022-10-22T03:34:51.203Z,8.62
2022-10-22T03:37:24.333Z,8.59
2022-10-22T03:39:56.688Z,8.56
2022-10-22T03:42:28.834Z,8.54
2022-10-22T03:45:00.206Z,8.51
2022-10-22T03:47:31.657Z,8.47
2022-10-22T03:50:03.235Z,8.44
2022-10-22T03:52:39.850Z,8.42
2022-10-22T03:55:13.134Z,8.40
2022-10-22T03:57:44.620Z,8.41
2022-10-22T04:00:17.425Z,8.45
2022-10-22T04:02:48.900Z,8.47
2022-10-22T04:05:20.402Z,8.49
2022-10-22T04:07:51.818Z,8.48
2022-10-22T04:10:23.284Z,8.47
2022-10-22T04:12:54.804Z,8.45
2022-10-22T04:15:29.390Z,8.43
2022-10-22T04:18:00.842Z,8.40
2022-10-22T04:20:32.236Z,8.38
2022-10-22T04:23:03.739Z,8.35
2022-10-22T04:25:35.210Z,8.33
2022-10-22T04:28:10.063Z,8.28
2022-10-22T04:30:41.588Z,8.22
2022-10-22T04:33:13.133Z,8.19
2022-10-22T04:35:44.648Z,8.17
2022-10-22T04:38:16.635Z,8.15
2022-10-22T04:40:48.103Z,8.17
2022-10-22T04:43:19.564Z,8.18
2022-10-22T04:45:51.020Z,8.21
2022-10-22T04:48:22.628Z,8.23
2022-10-22T04:50:54.006Z,8.29
2022-10-22T04:53:25.463Z,8.32
2022-10-22T04:55:56.966Z,8.33
2022-10-22T04:58:28.371Z,8.32
2022-10-22T05:01:00.857Z,8.31
2022-10-22T05:03:32.369Z,8.30
2022-10-22T05:06:04.899Z,8.28
2022-10-22T05:08:36.561Z,8.23
2022-10-22T05:11:15.651Z,8.20
2022-10-22T05:13:48.139Z,8.18
2022-10-22T05:16:19.584Z,8.16
2022-10-22T05:18:51.016Z,8.14
2022-10-22T05:21:23.793Z,8.14
2022-10-22T05:23:56.329Z,8.15
2022-10-22T05:26:29.636Z,8.17
2022-10-22T05:29:01.089Z,8.16
2022-10-22T05:31:32.704Z,8.24
2022-10-22T05:34:04.429Z,8.26
2022-10-22T05:36:35.952Z,8.29
2022-10-22T05:39:08.137Z,8.31
2022-10-22T05:41:39.754Z,8.30
2022-10-22T05:44:14.180Z,8.29
2022-10-22T05:46:46.892Z,8.29
2022-10-22T05:49:19.207Z,8.27
2022-10-22T05:51:50.748Z,8.24
2022-10-22T05:54:23.236Z,8.19
2022-10-22T05:56:56.296Z,8.15
2022-10-22T05:59:27.808Z,8.12
2022-10-22T06:01:59.231Z,8.12
2022-10-22T06:04:30.671Z,8.12
2022-10-22T06:07:03.063Z,8.13
2022-10-22T06:09:40.853Z,8.18
2022-10-22T06:12:13.831Z,8.26
2022-10-22T06:14:45.312Z,8.35
2022-10-22T06:17:19.722Z,8.44
2022-10-22T06:19:51.118Z,8.54
2022-10-22T06:22:22.526Z,8.66
2022-10-22T06:24:54.467Z,8.79
2022-10-22T06:27:25.964Z,8.87
2022-10-22T06:29:57.401Z,8.99
2022-10-22T06:32:28.778Z,9.11
2022-10-22T06:35:00.165Z,9.22
2022-10-22T06:37:31.676Z,9.32
2022-10-22T06:40:03.065Z,9.39
2022-10-22T06:42:34.662Z,9.46
2022-10-22T06:45:08.020Z,9.50
2022-10-22T06:47:40.213Z,9.53
2022-10-22T06:50:12.999Z,9.57
2022-10-22T06:52:44.604Z,9.66
2022-10-22T06:55:16.146Z,9.82
2022-10-22T06:57:47.550Z,10.06
2022-10-22T07:00:19.822Z,10.32
2022-10-22T07:02:57.696Z,10.58
2022-10-22T07:05:30.807Z,10.80
2022-10-22T07:08:02.306Z,10.94
2022-10-22T07:10:33.747Z,11.06
2022-10-22T07:13:05.301Z,11.14
2022-10-22T07:15:36.695Z,11.20
2022-10-22T07:18:08.337Z,11.27
2022-10-22T07:20:41.194Z,11.32
2022-10-22T07:23:12.642Z,11.35
2022-10-22T07:25:44.764Z,11.40
2022-10-22T07:28:16.268Z,11.47
2022-10-22T07:30:48.069Z,11.53
2022-10-22T07:33:19.542Z,11.55
2022-10-22T07:35:51.060Z,11.56
2022-10-22T07:38:22.489Z,11.60
2022-10-22T07:40:53.954Z,11.65
2022-10-22T07:43:25.504Z,11.73
2022-10-22T07:45:56.918Z,11.78
2022-10-22T07:48:28.546Z,11.81
2022-10-22T07:51:00.565Z,11.90
2022-10-22T07:53:32.249Z,11.96
2022-10-22T07:56:04.547Z,12.01
2022-10-22T07:58:36.710Z,12.04
2022-10-22T08:01:08.539Z,12.08
2022-10-22T08:03:40.337Z,12.09
2022-10-22T08:06:14.337Z,12.11
2022-10-22T08:08:46.745Z,12.17
2022-10-22T08:11:18.455Z,12.19
2022-10-22T08:13:49.839Z,12.23
2022-10-22T08:16:21.473Z,12.24
2022-10-22T08:18:53.344Z,12.25
2022-10-22T08:21:25.099Z,12.27
2022-10-22T08:23:56.700Z,12.30
2022-10-22T08:26:28.893Z,12.31
2022-10-22T08:29:00.392Z,12.31
2022-10-22T08:31:32.000Z,12.32
2022-10-22T08:34:05.686Z,12.35
2022-10-22T08:36:37.143Z,12.38
2022-10-22T08:39:08.619Z,12.39
2022-10-22T08:41:53.796Z,12.39
2022-10-22T08:44:50.123Z,12.35
2022-10-22T08:47:38.989Z,12.35
2022-10-22T08:50:17.895Z,12.37
2022-10-22T08:52:58.211Z,12.37
2022-10-22T08:55:36.515Z,12.36
2022-10-22T08:58:21.119Z,12.33
2022-10-22T09:01:00.903Z,12.29
2022-10-22T09:03:46.687Z,12.28
2022-10-22T09:06:23.067Z,12.29
2022-10-22T09:08:58.147Z,12.31
2022-10-22T09:11:34.476Z,12.32
2022-10-22T09:14:08.019Z,12.35
2022-10-22T09:16:54.959Z,12.40
2022-10-22T09:19:35.795Z,12.50
2022-10-22T09:22:23.733Z,12.57
2022-10-22T09:24:59.959Z,12.65
2022-10-22T09:27:32.653Z,12.72
2022-10-22T09:30:04.680Z,12.73
2022-10-22T09:32:36.134Z,12.75
2022-10-22T09:35:13.378Z,12.76
2022-10-22T09:37:52.551Z,12.76
2022-10-22T09:40:24.635Z,12.74
2022-10-22T09:42:56.044Z,12.75
2022-10-22T09:45:29.198Z,12.74
2022-10-22T09:48:13.939Z,12.71
2022-10-22T09:50:48.190Z,12.72
2022-10-22T09:53:23.501Z,12.72
2022-10-22T09:55:57.756Z,12.73
2022-10-22T09:58:30.102Z,12.73
2022-10-22T10:01:04.530Z,12.74
2022-10-22T10:03:35.923Z,12.72
2022-10-22T10:06:08.366Z,12.70
2022-10-22T10:08:40.066Z,12.71
2022-10-22T10:11:20.258Z,12.73
2022-10-22T10:13:59.447Z,12.76
2022-10-22T10:16:44.460Z,12.80
2022-10-22T10:19:38.928Z,12.81
2022-10-22T10:22:25.499Z,12.82
2022-10-22T10:25:29.032Z,12.80
2022-10-22T10:28:13.430Z,12.76
2022-10-22T10:30:53.422Z,12.72
2022-10-22T10:33:35.165Z,12.70
2022-10-22T10:36:18.003Z,12.67
2022-10-22T10:39:13.918Z,12.62
2022-10-22T10:41:57.566Z,12.54
2022-10-22T10:44:42.117Z,12.54
2022-10-22T10:47:46.875Z,12.61
2022-10-22T10:50:26.926Z,12.70
2022-10-22T10:53:12.348Z,12.75
2022-10-22T10:55:55.015Z,12.74
2022-10-22T10:58:35.830Z,12.80
2022-10-22T11:01:21.128Z,12.82
2022-10-22T11:04:08.504Z,12.81
2022-10-22T11:06:40.953Z,12.80
2022-10-22T11:09:25.893Z,12.78
2022-10-22T11:12:01.912Z,12.81
2022-10-22T11:14:41.337Z,12.80
2022-10-22T11:17:17.072Z,12.78
2022-10-22T11:19:59.897Z,12.75
2022-10-22T11:22:42.168Z,12.76
2022-10-22T11:25:23.293Z,12.75
2022-10-22T11:28:04.668Z,12.77
2022-10-22T11:30:41.977Z,12.78
2022-10-22T11:33:19.406Z,12.78
2022-10-22T11:42:20.452Z,12.89
2022-10-22T11:45:02.575Z,12.88
2022-10-22T11:47:36.553Z,12.89
2022-10-22T11:50:25.985Z,12.87
2022-10-22T11:53:05.271Z,12.86
2022-10-22T11:55:52.517Z,12.85
2022-10-22T11:58:33.269Z,12.83
2022-10-22T12:01:26.288Z,12.83
2022-10-22T12:04:21.407Z,12.85
2022-10-22T12:06:59.259Z,12.95
2022-10-22T12:09:34.398Z,13.02
2022-10-22T12:12:15.375Z,13.09
2022-10-22T12:14:59.364Z,13.12
2022-10-22T12:17:32.369Z,13.14
2022-10-22T12:20:08.849Z,13.15
2022-10-22T12:22:41.312Z,13.16
2022-10-22T12:25:22.145Z,13.17
2022-10-22T12:27:57.197Z,13.14
2022-10-22T12:30:31.487Z,13.12
2022-10-22T12:33:06.480Z,13.07
2022-10-22T12:35:52.010Z,13.04
2022-10-22T12:38:25.628Z,13.01
2022-10-22T12:40:59.222Z,13.00
2022-10-22T12:43:33.527Z,13.00
2022-10-22T12:46:05.365Z,13.01
2022-10-22T12:48:41.529Z,13.02
2022-10-22T12:51:20.229Z,13.03
2022-10-22T12:53:55.176Z,13.03
2022-10-22T12:56:30.037Z,13.04
2022-10-22T12:59:05.132Z,13.03
2022-10-22T13:01:39.910Z,13.01
2022-10-22T13:04:23.245Z,12.99
2022-10-22T13:07:08.164Z,12.96
2022-10-22T13:09:44.993Z,12.93
2022-10-22T13:12:25.528Z,12.90
2022-10-22T13:14:56.998Z,12.92
2022-10-22T13:17:44.037Z,12.97
2022-10-22T13:20:22.393Z,13.01
2022-10-22T13:23:00.433Z,13.02
2022-10-22T13:25:33.594Z,13.03
2022-10-22T13:28:19.666Z,13.03
2022-10-22T13:30:57.914Z,13.03
2022-10-22T13:33:33.461Z,13.01
2022-10-22T13:36:06.429Z,12.97
2022-10-22T13:38:38.019Z,12.92
2022-10-22T13:41:22.477Z,12.89
2022-10-22T13:43:55.241Z,12.85
2022-10-22T13:46:29.432Z,12.82
2022-10-22T13:49:01.564Z,12.81
2022-10-22T13:51:36.761Z,12.82
2022-10-22T13:54:16.329Z,12.80
2022-10-22T13:56:48.271Z,12.80
2022-10-22T13:59:22.863Z,12.80
2022-10-22T14:01:57.230Z,12.80
2022-10-22T14:04:28.760Z,12.79
2022-10-22T14:07:02.870Z,12.78
2022-10-22T14:09:35.782Z,12.74
2022-10-22T14:12:14.140Z,12.70
2022-10-22T14:14:45.714Z,12.66
2022-10-22T14:17:19.460Z,12.63
2022-10-22T14:19:51.975Z,12.58
2022-10-22T14:22:26.171Z,12.53
2022-10-22T14:24:57.721Z,12.52
2022-10-22T14:27:29.264Z,12.50
2022-10-22T14:30:00.698Z,12.51
2022-10-22T14:32:33.567Z,12.50
2022-10-22T14:35:05.348Z,12.48
2022-10-22T14:37:36.893Z,12.43
2022-10-22T14:40:13.446Z,12.38
2022-10-22T14:42:47.570Z,12.33
2022-10-22T14:45:23.140Z,12.29
2022-10-22T14:47:56.039Z,12.22
2022-10-22T14:50:28.004Z,12.17
2022-10-22T14:53:00.688Z,12.17
2022-10-22T14:55:32.604Z,12.18
2022-10-22T14:58:04.202Z,12.18
2022-10-22T15:00:36.909Z,12.18
2022-10-22T15:03:08.660Z,12.17
2022-10-22T15:05:44.857Z,12.17
2022-10-22T15:08:17.719Z,12.14
2022-10-22T15:10:57.935Z,12.11
2022-10-22T15:13:30.134Z,12.05
2022-10-22T15:16:03.052Z,12.00
2022-10-22T15:18:34.687Z,11.95
2022-10-22T15:21:09.125Z,11.95
2022-10-22T15:23:41.242Z,11.95
2022-10-22T15:26:14.075Z,11.95
2022-10-22T15:28:45.811Z,11.93
2022-10-22T15:31:38.368Z,11.91
2022-10-22T15:34:09.913Z,11.91
2022-10-22T15:36:41.469Z,11.90
2022-10-22T15:39:13.504Z,11.87
2022-10-22T15:41:45.043Z,11.85
2022-10-22T15:44:21.654Z,11.82
2022-10-22T15:46:54.881Z,11.81
2022-10-22T15:49:29.193Z,11.83
2022-10-22T15:52:00.723Z,11.85
2022-10-22T15:54:33.010Z,11.86
2022-10-22T15:57:08.687Z,11.90
2022-10-22T15:59:42.993Z,11.90
2022-10-22T16:02:15.983Z,11.88
2022-10-22T16:04:48.154Z,11.87
2022-10-22T16:07:22.538Z,11.85
2022-10-22T16:10:00.324Z,11.83
2022-10-22T16:12:32.754Z,11.79
2022-10-22T16:15:04.721Z,11.78
2022-10-22T16:17:36.471Z,11.78
2022-10-22T16:20:10.188Z,11.80
2022-10-22T16:22:40.441Z,11.83
2022-10-22T16:25:12.780Z,11.87
2022-10-22T16:27:44.317Z,11.88
2022-10-22T16:30:16.576Z,11.86
2022-10-22T16:32:48.162Z,11.85
2022-10-22T16:35:19.826Z,11.83
2022-10-22T16:37:51.474Z,11.81
2022-10-22T16:40:23.755Z,11.79
2022-10-22T16:42:55.606Z,11.79
2022-10-22T16:45:27.283Z,11.78
2022-10-22T16:47:58.930Z,11.81
2022-10-22T16:50:30.783Z,11.82
2022-10-22T16:53:02.451Z,11.83
2022-10-22T16:55:38.922Z,11.85
2022-10-22T16:58:10.684Z,11.82
2022-10-22T17:00:42.458Z,11.82
2022-10-22T17:03:14.909Z,11.81
2022-10-22T17:05:47.601Z,11.80
2022-10-22T17:08:20.387Z,11.75
2022-10-22T17:10:52.153Z,11.72
2022-10-22T17:13:23.803Z,11.71
2022-10-22T17:16:01.811Z,11.74
2022-10-22T17:18:35.545Z,11.78
2022-10-22T17:21:09.402Z,11.80
2022-10-22T17:23:39.543Z,11.80
2022-10-22T17:26:17.629Z,11.80
2022-10-22T17:28:50.746Z,11.78
2022-10-22T17:31:24.844Z,11.75
2022-10-22T17:34:00.226Z,11.72
2022-10-22T17:36:35.652Z,11.67
2022-10-22T17:39:09.356Z,11.66
2022-10-22T17:41:40.760Z,11.64
2022-10-22T17:44:16.814Z,11.63
2022-10-22T17:46:49.735Z,11.65
2022-10-22T17:49:22.540Z,11.67
2022-10-22T17:51:54.129Z,11.70
2022-10-22T17:54:25.677Z,11.72
2022-10-22T17:56:57.197Z,11.71
2022-10-22T17:59:28.751Z,11.69
2022-10-22T18:02:02.295Z,11.68
2022-10-22T18:04:35.342Z,11.67
2022-10-22T18:07:06.868Z,11.65
2022-10-22T18:09:40.139Z,11.66
2022-10-22T18:12:13.708Z,11.68
2022-10-22T18:14:46.404Z,11.70
2022-10-22T18:17:17.895Z,11.71
2022-10-22T18:19:50.731Z,11.69
2022-10-22T18:22:22.227Z,11.66
2022-10-22T18:24:53.733Z,11.64
2022-10-22T18:27:25.368Z,11.63
2022-10-22T18:29:56.865Z,11.63
2022-10-22T18:32:28.362Z,11.66
2022-10-22T18:34:59.861Z,11.69
2022-10-22T18:37:31.961Z,11.72
2022-10-22T18:40:03.430Z,11.72
2022-10-22T18:42:39.755Z,11.73
2022-10-22T18:45:13.007Z,11.72
2022-10-22T18:47:44.819Z,11.70
2022-10-22T18:50:16.488Z,11.71
2022-10-22T18:52:47.992Z,11.75
2022-10-22T18:55:19.577Z,11.77
2022-10-22T18:57:51.094Z,11.81
2022-10-22T19:00:22.809Z,11.85
2022-10-22T19:02:54.927Z,11.84
2022-10-22T19:05:26.471Z,11.84
2022-10-22T19:07:57.947Z,11.83
2022-10-22T19:10:29.340Z,11.82
2022-10-22T19:13:00.724Z,11.82
2022-10-22T19:15:32.458Z,11.84
2022-10-22T19:18:04.055Z,11.86
2022-10-22T19:20:35.837Z,11.90
2022-10-22T19:23:08.321Z,11.92
2022-10-22T19:25:40.107Z,11.93
2022-10-22T19:28:11.554Z,11.95
2022-10-22T19:30:44.718Z,11.95
2022-10-22T19:33:16.134Z,11.94
2022-10-22T19:35:47.734Z,11.93
2022-10-22T19:38:19.257Z,11.90
2022-10-22T19:40:51.347Z,11.89
2022-10-22T19:43:23.779Z,11.89
2022-10-22T19:45:55.196Z,11.93
2022-10-22T19:48:28.697Z,11.96
2022-10-22T19:51:04.958Z,12.00
2022-10-22T19:53:37.923Z,12.01
2022-10-22T19:56:12.152Z,12.00
2022-10-22T19:58:43.688Z,11.99
2022-10-22T20:01:17.563Z,11.99
2022-10-22T20:03:50.778Z,11.98
2022-10-22T20:06:22.982Z,11.95
2022-10-22T20:08:56.144Z,11.95
2022-10-22T20:11:30.156Z,11.98
2022-10-22T20:14:02.297Z,11.99
2022-10-22T20:16:36.360Z,11.99
2022-10-22T20:19:11.117Z,12.00
2022-10-22T20:21:43.309Z,12.00
2022-10-22T20:24:15.250Z,12.01
2022-10-22T20:26:49.070Z,12.02
2022-10-22T20:29:20.637Z,12.03
2022-10-22T20:31:52.323Z,12.03
2022-10-22T20:34:23.695Z,12.03
2022-10-22T20:36:55.250Z,12.01
2022-10-22T20:39:26.809Z,12.08
2022-10-22T20:41:58.364Z,12.10
2022-10-22T20:44:30.362Z,12.13
2022-10-22T20:47:01.795Z,12.17
2022-10-22T20:49:33.890Z,12.18
2022-10-22T20:52:05.413Z,12.18
2022-10-22T20:54:41.386Z,12.19
2022-10-22T20:57:14.316Z,12.18
2022-10-22T20:59:46.341Z,12.18
2022-10-22T21:02:18.309Z,12.18
2022-10-22T21:04:49.710Z,12.21
2022-10-22T21:07:21.106Z,12.26
2022-10-22T21:09:52.553Z,12.31
2022-10-22T21:12:24.095Z,12.35
2022-10-22T21:14:55.627Z,12.38
2022-10-22T21:17:27.117Z,12.36
2022-10-22T21:19:58.735Z,12.34
2022-10-22T21:22:30.340Z,12.34
2022-10-22T21:25:01.735Z,12.32
2022-10-22T21:27:33.207Z,12.31
2022-10-22T21:30:05.514Z,12.31
2022-10-22T21:32:36.960Z,12.32
2022-10-22T21:35:09.592Z,12.35
2022-10-22T21:37:41.210Z,12.39
2022-10-22T21:40:14.903Z,12.42
2022-10-22T21:42:46.544Z,12.45
2022-10-22T21:45:22.109Z,12.46
2022-10-22T21:47:54.092Z,12.43
2022-10-22T21:50:25.524Z,12.40
2022-10-22T21:52:56.954Z,12.41
2022-10-22T21:55:30.428Z,12.43
2022-10-22T21:58:01.867Z,12.45
2022-10-22T22:00:33.465Z,12.48
2022-10-22T22:03:07.882Z,12.50
2022-10-22T22:05:39.827Z,12.54
2022-10-22T22:08:11.263Z,12.55
2022-10-22T22:10:43.439Z,12.54
2022-10-22T22:13:17.833Z,12.51
2022-10-22T22:15:49.213Z,12.46
2022-10-22T22:18:21.520Z,12.43
2022-10-22T22:20:52.961Z,12.42
2022-10-22T22:23:24.428Z,12.42
2022-10-22T22:25:59.096Z,12.43
2022-10-22T22:28:32.217Z,12.46
2022-10-22T22:31:13.026Z,12.47
2022-10-22T22:33:45.008Z,12.50
2022-10-22T22:36:16.574Z,12.51
2022-10-22T22:38:48.119Z,12.51
2022-10-22T22:41:19.521Z,12.51
2022-10-22T22:43:51.023Z,12.52
2022-10-22T22:46:22.521Z,12.51
2022-10-22T22:48:53.935Z,12.51
2022-10-22T22:51:25.673Z,12.53
2022-10-22T22:53:57.811Z,12.55
2022-10-22T22:56:31.481Z,12.56
2022-10-22T22:59:01.528Z,12.56
2022-10-22T23:01:35.329Z,12.57
2022-10-22T23:04:13.512Z,12.55
2022-10-22T23:06:45.228Z,12.50
2022-10-22T23:11:55.350Z,12.44
2022-10-22T23:14:26.756Z,12.44
2022-10-22T23:16:58.134Z,12.47
2022-10-22T23:19:29.584Z,12.48
2022-10-22T23:22:00.963Z,12.49
2022-10-22T23:24:32.566Z,12.53
2022-10-22T23:27:05.565Z,12.54
2022-10-22T23:29:37.448Z,12.56
2022-10-22T23:32:15.217Z,12.54
2022-10-22T23:34:46.585Z,12.49
2022-10-22T23:37:18.036Z,12.46
2022-10-22T23:39:49.485Z,12.42
2022-10-22T23:42:20.899Z,12.41
2022-10-22T23:44:52.337Z,12.41
2022-10-22T23:47:23.871Z,12.42
2022-10-22T23:49:55.237Z,12.44
2022-10-22T23:52:27.983Z,12.45
2022-10-22T23:54:59.409Z,12.44
2022-10-22T23:57:30.811Z,12.41
